createdAt,value
2022-09-14T00:01:24.216Z,1.77
2022-09-14T00:03:52.957Z,1.60
2022-09-14T00:06:19.397Z,1.52
2022-09-14T00:08:49.158Z,1.90
2022-09-14T00:11:15.581Z,1.45
2022-09-14T00:13:42.723Z,1.45
2022-09-14T00:16:15.540Z,1.48
2022-09-14T00:18:42.324Z,1.73
2022-09-14T00:21:09.594Z,1.73
2022-09-14T00:23:37.244Z,2.15
2022-09-14T00:26:08.424Z,1.92
2022-09-14T00:28:39.098Z,1.48
2022-09-14T00:31:06.337Z,1.80
2022-09-14T00:33:34.114Z,1.67
2022-09-14T00:36:04.654Z,1.92
2022-09-14T00:38:30.993Z,1.65
2022-09-14T00:40:58.440Z,1.38
2022-09-14T00:43:25.121Z,1.45
2022-09-14T00:45:51.611Z,2.20
2022-09-14T00:48:18.328Z,1.13
2022-09-14T00:50:45.393Z,1.70
2022-09-14T00:53:11.702Z,1.75
2022-09-14T00:55:38.089Z,1.65
2022-09-14T00:58:04.468Z,1.63
2022-09-14T01:00:31.041Z,1.65
2022-09-14T01:02:57.722Z,1.75
2022-09-14T01:05:29.997Z,2.10
2022-09-14T01:08:08.793Z,2.05
2022-09-14T01:10:50.464Z,1.60
2022-09-14T01:13:17.366Z,1.90
2022-09-14T01:15:43.677Z,1.45
2022-09-14T01:18:16.204Z,1.48
2022-09-14T01:20:54.849Z,1.38
2022-09-14T01:23:38.804Z,1.77
2022-09-14T01:26:08.309Z,1.88
2022-09-14T01:28:50.081Z,2.05
2022-09-14T01:31:20.308Z,1.52
2022-09-14T01:34:10.249Z,1.50
2022-09-14T01:36:38.970Z,1.88
2022-09-14T01:39:05.884Z,2.05
2022-09-14T01:41:33.886Z,1.30
2022-09-14T01:44:08.270Z,1.60
2022-09-14T01:46:43.157Z,1.30
2022-09-14T01:49:32.108Z,1.50
2022-09-14T01:52:00.961Z,1.75
2022-09-14T01:54:32.011Z,1.30
2022-09-14T01:57:01.311Z,1.70
2022-09-14T01:59:31.606Z,1.55
2022-09-14T02:02:02.826Z,2.50
2022-09-14T02:04:34.257Z,2.25
2022-09-14T02:07:00.660Z,1.35
2022-09-14T02:09:27.164Z,1.90
2022-09-14T02:11:54.867Z,1.15
2022-09-14T02:14:22.341Z,1.17
2022-09-14T02:16:48.754Z,1.30
2022-09-14T02:19:15.232Z,1.52
2022-09-14T02:21:41.629Z,1.80
2022-09-14T02:24:08.989Z,1.42
2022-09-14T02:26:35.362Z,1.63
2022-09-14T02:29:01.751Z,2.30
2022-09-14T02:31:34.512Z,1.77
2022-09-14T02:34:10.937Z,1.25
2022-09-14T02:36:46.359Z,1.90
2022-09-14T02:39:19.629Z,1.63
2022-09-14T02:42:00.200Z,1.80
2022-09-14T02:44:35.161Z,1.70
2022-09-14T02:47:10.529Z,1.63
2022-09-14T02:49:57.121Z,1.90
2022-09-14T02:52:56.089Z,2.13
2022-09-14T02:55:24.126Z,1.95
2022-09-14T02:57:59.374Z,1.95
2022-09-14T03:00:26.495Z,2.33
2022-09-14T03:02:53.190Z,2.03
2022-09-14T03:05:19.602Z,2.13
2022-09-14T03:07:46.096Z,1.92
2022-09-14T03:10:12.605Z,1.50
2022-09-14T03:12:38.997Z,2.65
2022-09-14T03:15:06.232Z,2.25
2022-09-14T03:17:32.629Z,2.22
2022-09-14T03:19:59.010Z,2.25
2022-09-14T03:22:25.404Z,1.88
2022-09-14T03:24:51.857Z,2.72
2022-09-14T03:27:18.181Z,2.97
2022-09-14T03:29:44.606Z,1.95
2022-09-14T03:32:12.157Z,2.42
2022-09-14T03:34:38.601Z,2.17
2022-09-14T03:37:04.958Z,2.85
2022-09-14T03:39:31.368Z,2.95
2022-09-14T03:41:57.700Z,2.90
2022-09-14T03:44:24.144Z,2.88
2022-09-14T03:46:50.575Z,2.60
2022-09-14T03:49:16.989Z,3.67
2022-09-14T03:51:43.319Z,3.30
2022-09-14T03:54:09.654Z,3.72
2022-09-14T03:56:35.995Z,3.28
2022-09-14T03:59:02.434Z,3.55
2022-09-14T04:01:28.780Z,3.28
2022-09-14T04:03:55.408Z,3.50
2022-09-14T04:06:22.109Z,3.95
2022-09-14T04:08:48.574Z,4.13
2022-09-14T04:11:17.389Z,4.47
2022-09-14T04:13:44.251Z,3.92
2022-09-14T04:16:10.691Z,3.78
2022-09-14T04:18:37.117Z,3.30
2022-09-14T04:21:08.285Z,3.50
2022-09-14T04:23:42.271Z,3.50
2022-09-14T04:26:18.725Z,4.07
2022-09-14T04:28:45.138Z,3.20
2022-09-14T04:31:12.086Z,3.10
2022-09-14T04:33:39.154Z,3.30
2022-09-14T04:36:05.711Z,3.08
2022-09-14T04:38:32.720Z,3.10
2022-09-14T04:40:59.516Z,2.58
2022-09-14T04:43:26.348Z,2.63
2022-09-14T04:45:53.000Z,1.98
2022-09-14T04:48:19.450Z,2.22
2022-09-14T04:50:45.778Z,2.22
2022-09-14T04:53:12.214Z,1.88
2022-09-14T04:55:38.543Z,1.77
2022-09-14T04:58:05.079Z,1.65
2022-09-14T05:00:33.132Z,1.80
2022-09-14T05:02:59.636Z,1.67
2022-09-14T05:05:26.115Z,1.48
2022-09-14T05:07:52.437Z,1.50
2022-09-14T05:10:19.321Z,1.85
2022-09-14T05:12:45.742Z,1.60
2022-09-14T05:15:12.058Z,1.40
2022-09-14T05:17:38.468Z,0.95
2022-09-14T05:20:05.109Z,1.30
2022-09-14T05:22:31.449Z,1.30
2022-09-14T05:24:57.775Z,1.20
2022-09-14T05:27:24.215Z,1.80
2022-09-14T05:29:50.545Z,2.00
2022-09-14T05:32:16.998Z,1.63
2022-09-14T05:34:43.296Z,1.65
2022-09-14T05:37:11.406Z,1.85
2022-09-14T05:39:37.812Z,1.45
2022-09-14T05:42:04.229Z,2.15
2022-09-14T05:44:30.605Z,1.63
2022-09-14T05:46:57.013Z,1.90
2022-09-14T05:49:25.173Z,1.98
2022-09-14T05:51:51.510Z,1.40
2022-09-14T05:54:18.006Z,2.20
2022-09-14T05:56:44.402Z,1.60
2022-09-14T05:59:10.893Z,2.28
2022-09-14T06:01:37.532Z,1.80
2022-09-14T06:04:03.996Z,1.90
2022-09-14T06:06:31.322Z,2.13
2022-09-14T06:08:57.973Z,1.67
2022-09-14T06:11:28.701Z,1.60
2022-09-14T06:13:55.537Z,1.77
2022-09-14T06:16:22.937Z,1.63
2022-09-14T06:18:49.573Z,2.03
2022-09-14T06:21:17.553Z,1.65
2022-09-14T06:23:44.347Z,1.67
2022-09-14T06:26:11.197Z,1.83
2022-09-14T06:28:37.680Z,1.80
2022-09-14T06:31:04.515Z,1.80
2022-09-14T06:33:31.208Z,2.08
2022-09-14T06:35:59.055Z,1.88
2022-09-14T06:38:26.134Z,1.77
2022-09-14T06:40:56.896Z,2.60
2022-09-14T06:43:24.276Z,1.90
2022-09-14T06:45:56.693Z,1.98
2022-09-14T06:48:23.208Z,1.77
2022-09-14T06:50:49.825Z,1.75
2022-09-14T06:53:16.139Z,2.55
2022-09-14T06:55:44.639Z,2.25
2022-09-14T06:58:11.153Z,2.65
2022-09-14T07:00:37.634Z,2.33
2022-09-14T07:03:04.090Z,2.60
2022-09-14T07:05:30.983Z,3.10
2022-09-14T07:07:57.697Z,2.38
2022-09-14T07:10:27.936Z,2.80
2022-09-14T07:12:54.830Z,2.92
2022-09-14T07:15:21.877Z,2.40
2022-09-14T07:17:48.235Z,2.70
2022-09-14T07:20:15.564Z,2.55
2022-09-14T07:22:42.158Z,3.08
2022-09-14T07:25:09.466Z,3.10
2022-09-14T07:27:38.604Z,3.10
2022-09-14T07:30:06.289Z,2.83
2022-09-14T07:32:32.585Z,3.45
2022-09-14T07:34:59.001Z,2.80
2022-09-14T07:37:25.306Z,3.30
2022-09-14T07:39:51.672Z,2.72
2022-09-14T07:42:18.107Z,3.22
2022-09-14T07:44:44.441Z,2.90
2022-09-14T07:47:10.746Z,2.80
2022-09-14T07:49:37.117Z,2.85
2022-09-14T07:52:03.426Z,3.13
2022-09-14T07:54:29.721Z,4.00
2022-09-14T07:56:56.055Z,2.90
2022-09-14T07:59:38.237Z,3.10
2022-09-14T08:02:06.041Z,3.63
2022-09-14T08:04:33.529Z,3.40
2022-09-14T08:07:02.003Z,3.38
2022-09-14T08:09:28.343Z,3.10
2022-09-14T08:11:54.623Z,2.90
2022-09-14T08:14:20.970Z,3.78
2022-09-14T08:16:47.312Z,3.28
2022-09-14T08:19:16.480Z,3.78
2022-09-14T08:21:46.912Z,3.30
2022-09-14T08:24:15.460Z,3.53
2022-09-14T08:26:42.083Z,3.53
2022-09-14T08:29:08.716Z,3.00
2022-09-14T08:31:38.897Z,3.38
2022-09-14T08:34:05.544Z,3.35
2022-09-14T08:36:36.332Z,2.70
2022-09-14T08:39:03.020Z,3.08
2022-09-14T08:41:31.720Z,3.30
2022-09-14T08:44:10.220Z,3.75
2022-09-14T08:46:39.213Z,2.88
2022-09-14T08:49:11.929Z,3.00
2022-09-14T08:51:38.382Z,3.42
2022-09-14T08:54:04.714Z,2.72
2022-09-14T08:56:38.204Z,2.75
2022-09-14T08:59:34.109Z,2.95
2022-09-14T09:02:06.975Z,2.95
2022-09-14T09:04:36.355Z,3.53
2022-09-14T09:07:14.119Z,3.10
2022-09-14T09:09:45.103Z,3.28
2022-09-14T09:12:19.250Z,2.90
2022-09-14T09:14:48.397Z,2.10
2022-09-14T09:17:17.389Z,3.00
2022-09-14T09:19:53.497Z,3.28
2022-09-14T09:22:22.431Z,3.08
2022-09-14T09:24:54.009Z,2.25
2022-09-14T09:27:20.888Z,2.90
2022-09-14T09:29:47.294Z,2.70
2022-09-14T09:32:18.168Z,3.17
2022-09-14T09:34:44.631Z,3.35
2022-09-14T09:37:23.649Z,3.22
2022-09-14T09:39:50.230Z,3.10
2022-09-14T09:42:24.380Z,3.53
2022-09-14T09:45:02.575Z,3.92
2022-09-14T09:47:30.157Z,3.13
2022-09-14T09:49:58.348Z,3.53
2022-09-14T09:52:24.696Z,2.60
2022-09-14T09:54:52.189Z,2.22
2022-09-14T09:57:23.420Z,2.35
2022-09-14T09:59:50.056Z,2.17
2022-09-14T10:02:30.670Z,2.10
2022-09-14T10:05:01.599Z,2.00
2022-09-14T10:07:28.702Z,2.30
2022-09-14T10:10:03.606Z,2.00
2022-09-14T10:12:30.081Z,1.88
2022-09-14T10:15:05.066Z,1.90
2022-09-14T10:17:31.397Z,1.80
2022-09-14T10:19:58.226Z,1.85
2022-09-14T10:22:29.574Z,2.03
2022-09-14T10:25:00.661Z,1.42
2022-09-14T10:27:37.010Z,2.10
2022-09-14T10:30:04.596Z,1.90
2022-09-14T10:32:31.708Z,2.42
2022-09-14T10:34:58.766Z,2.05
2022-09-14T10:37:43.809Z,2.30
2022-09-14T10:40:15.709Z,2.20
2022-09-14T10:42:53.362Z,2.38
2022-09-14T10:45:31.356Z,1.92
2022-09-14T10:48:07.196Z,2.13
2022-09-14T10:50:41.077Z,2.53
2022-09-14T10:53:22.785Z,2.03
2022-09-14T10:55:56.674Z,2.25
2022-09-14T10:58:27.453Z,1.75
2022-09-14T11:00:56.493Z,1.40
2022-09-14T11:03:28.129Z,1.70
2022-09-14T11:06:01.090Z,1.90
2022-09-14T11:08:31.978Z,2.42
2022-09-14T11:10:58.429Z,1.92
2022-09-14T11:13:27.846Z,1.67
2022-09-14T11:16:08.376Z,1.83
2022-09-14T11:18:40.712Z,1.98
2022-09-14T11:21:13.442Z,2.25
2022-09-14T11:23:43.863Z,2.08
2022-09-14T11:26:31.547Z,2.33
2022-09-14T11:29:04.295Z,1.88
2022-09-14T11:31:38.909Z,2.67
2022-09-14T11:34:14.219Z,1.90
2022-09-14T11:36:44.517Z,2.03
2022-09-14T11:39:17.941Z,1.55
2022-09-14T11:41:49.914Z,1.90
2022-09-14T11:44:22.521Z,1.77
2022-09-14T11:49:19.347Z,2.47
2022-09-14T11:51:56.748Z,2.20
2022-09-14T11:54:24.000Z,1.98
2022-09-14T11:56:51.985Z,1.80
2022-09-14T11:59:37.169Z,1.55
2022-09-14T12:02:22.349Z,1.75
2022-09-14T12:05:17.855Z,2.08
2022-09-14T12:07:46.854Z,2.20
2022-09-14T12:10:16.569Z,1.85
2022-09-14T12:12:43.810Z,1.88
2022-09-14T12:15:33.438Z,1.90
2022-09-14T12:18:02.665Z,2.25
2022-09-14T12:20:33.268Z,2.00
2022-09-14T12:23:18.146Z,2.78
2022-09-14T12:25:53.580Z,2.83
2022-09-14T12:28:40.123Z,2.80
2022-09-14T12:31:09.278Z,3.00
2022-09-14T12:33:41.258Z,3.00
2022-09-14T12:36:11.958Z,3.42
2022-09-14T12:38:38.369Z,2.40
2022-09-14T12:41:10.685Z,2.30
2022-09-14T12:43:37.309Z,2.58
2022-09-14T12:46:10.606Z,2.53
2022-09-14T12:48:45.935Z,2.33
2022-09-14T12:51:32.691Z,2.42
2022-09-14T12:53:59.301Z,2.53
2022-09-14T12:56:32.269Z,1.95
2022-09-14T12:59:05.006Z,2.13
2022-09-14T13:01:50.267Z,2.67
2022-09-14T13:04:20.760Z,2.33
2022-09-14T13:06:47.587Z,2.00
2022-09-14T13:09:21.336Z,2.50
2022-09-14T13:11:52.845Z,2.22
2022-09-14T13:14:19.683Z,2.80
2022-09-14T13:16:47.893Z,2.33
2022-09-14T13:19:20.249Z,2.65
2022-09-14T13:21:48.209Z,3.03
2022-09-14T13:24:28.662Z,2.60
2022-09-14T13:26:57.313Z,2.95
2022-09-14T13:29:26.503Z,2.42
2022-09-14T13:31:59.724Z,2.50
2022-09-14T13:34:31.349Z,2.40
2022-09-14T13:36:57.842Z,2.97
2022-09-14T13:39:30.153Z,2.95
2022-09-14T13:41:56.785Z,2.50
2022-09-14T13:44:26.161Z,2.80
2022-09-14T13:46:53.243Z,2.63
2022-09-14T13:49:20.664Z,3.15
2022-09-14T13:51:47.397Z,2.50
2022-09-14T13:54:40.001Z,3.00
2022-09-14T13:57:13.794Z,3.40
2022-09-14T13:59:59.346Z,3.30
2022-09-14T14:02:26.843Z,3.20
2022-09-14T14:04:53.175Z,2.88
2022-09-14T14:07:25.328Z,2.80
2022-09-14T14:09:53.776Z,3.20
2022-09-14T14:12:22.276Z,3.83
2022-09-14T14:14:55.613Z,3.80
2022-09-14T14:17:23.669Z,3.92
2022-09-14T14:19:50.832Z,3.35
2022-09-14T14:22:18.439Z,3.72
2022-09-14T14:25:11.739Z,3.10
2022-09-14T14:27:33.957Z,3.47
2022-09-14T14:30:01.485Z,3.40
2022-09-14T14:32:28.815Z,2.97
2022-09-14T14:34:55.405Z,3.92
2022-09-14T14:37:21.972Z,3.50
2022-09-14T14:39:49.773Z,3.90
2022-09-14T14:42:16.567Z,4.38
2022-09-14T14:44:43.658Z,3.58
2022-09-14T14:47:13.981Z,3.70
2022-09-14T14:49:40.449Z,3.92
2022-09-14T14:52:06.922Z,3.50
2022-09-14T14:54:33.290Z,3.20
2022-09-14T14:56:59.596Z,3.53
2022-09-14T14:59:27.386Z,3.72
2022-09-14T15:01:54.947Z,3.40
2022-09-14T15:04:21.794Z,3.50
2022-09-14T15:06:48.145Z,3.70
2022-09-14T15:09:23.201Z,5.45
2022-09-14T15:11:50.426Z,4.53
2022-09-14T15:14:18.291Z,3.70
2022-09-14T15:16:45.259Z,3.25
2022-09-14T15:19:11.604Z,4.28
2022-09-14T15:21:38.510Z,4.95
2022-09-14T15:24:05.927Z,3.63
2022-09-14T15:26:33.126Z,3.72
2022-09-14T15:28:59.782Z,4.63
2022-09-14T15:31:26.188Z,3.40
2022-09-14T15:33:52.789Z,4.45
2022-09-14T15:36:38.773Z,4.15
2022-09-14T15:39:06.302Z,4.13
2022-09-14T15:41:32.617Z,4.43
2022-09-14T15:43:59.080Z,4.55
2022-09-14T15:46:25.401Z,3.78
2022-09-14T15:48:51.749Z,4.05
2022-09-14T15:51:19.548Z,3.63
2022-09-14T15:53:46.337Z,4.20
2022-09-14T15:56:13.456Z,3.50
2022-09-14T15:58:39.821Z,3.63
2022-09-14T16:01:09.242Z,3.30
2022-09-14T16:03:35.679Z,3.30
2022-09-14T16:06:02.194Z,2.55
2022-09-14T16:08:28.586Z,3.75
2022-09-14T16:10:59.105Z,2.47
2022-09-14T16:13:25.552Z,2.30
2022-09-14T16:15:56.677Z,3.40
2022-09-14T16:18:25.784Z,3.30
2022-09-14T16:20:52.104Z,2.90
2022-09-14T16:23:18.420Z,3.45
2022-09-14T16:25:44.715Z,3.10
2022-09-14T16:28:11.120Z,3.03
2022-09-14T16:30:37.420Z,3.65
2022-09-14T16:33:03.786Z,3.50
2022-09-14T16:35:30.085Z,3.25
2022-09-14T16:37:56.460Z,3.03
2022-09-14T16:40:22.853Z,2.80
2022-09-14T16:42:51.142Z,3.33
2022-09-14T16:45:17.502Z,3.22
2022-09-14T16:47:44.524Z,3.90
2022-09-14T16:50:10.893Z,3.40
2022-09-14T16:52:37.321Z,3.00
2022-09-14T16:55:03.816Z,2.42
2022-09-14T16:57:30.174Z,3.53
2022-09-14T16:59:56.529Z,3.45
2022-09-14T17:02:23.064Z,2.80
2022-09-14T17:04:49.543Z,4.57
2022-09-14T17:07:15.974Z,3.75
2022-09-14T17:09:42.345Z,3.80
2022-09-14T17:12:08.744Z,3.55
2022-09-14T17:14:35.190Z,3.40
2022-09-14T17:17:04.910Z,3.40
2022-09-14T17:19:33.150Z,3.67
2022-09-14T17:21:59.700Z,2.78
2022-09-14T17:24:26.117Z,2.95
2022-09-14T17:26:52.524Z,3.10
2022-09-14T17:29:19.364Z,3.05
2022-09-14T17:31:46.159Z,3.40
2022-09-14T17:34:13.510Z,3.17
2022-09-14T17:36:39.929Z,3.00
2022-09-14T17:39:11.574Z,3.13
2022-09-14T17:41:38.974Z,3.22
2022-09-14T17:44:06.127Z,3.55
2022-09-14T17:46:32.734Z,3.97
2022-09-14T17:49:00.264Z,4.10
2022-09-14T17:51:28.771Z,3.60
2022-09-14T17:53:55.901Z,3.78
2022-09-14T17:56:23.168Z,4.20
2022-09-14T17:58:50.419Z,3.80
2022-09-14T18:01:23.376Z,4.10
2022-09-14T18:03:51.347Z,4.00
2022-09-14T18:06:18.428Z,4.43
2022-09-14T18:08:44.900Z,4.00
2022-09-14T18:11:13.014Z,4.10
2022-09-14T18:13:40.547Z,4.25
2022-09-14T18:16:07.001Z,4.88
2022-09-14T18:18:33.501Z,3.53
2022-09-14T18:21:00.585Z,5.53
2022-09-14T18:23:27.482Z,7.93
2022-09-14T18:25:54.291Z,24.33
2022-09-14T18:28:21.474Z,11.85
2022-09-14T18:30:47.855Z,7.35
2022-09-14T18:33:14.434Z,6.40
2022-09-14T18:35:40.873Z,6.05
2022-09-14T18:38:07.263Z,5.40
2022-09-14T18:40:34.439Z,5.43
2022-09-14T18:43:00.917Z,5.88
2022-09-14T18:45:28.940Z,5.40
2022-09-14T18:47:55.826Z,5.35
2022-09-14T18:50:23.161Z,5.68
2022-09-14T18:52:52.738Z,5.28
2022-09-14T18:55:20.292Z,6.03
2022-09-14T18:57:47.236Z,6.07
2022-09-14T19:00:18.220Z,6.60
2022-09-14T19:02:45.826Z,5.95
2022-09-14T19:05:12.448Z,5.97
2022-09-14T19:07:38.836Z,5.88
2022-09-14T19:10:09.736Z,5.63
2022-09-14T19:15:04.688Z,5.93
2022-09-14T19:17:31.169Z,8.93
2022-09-14T19:19:58.102Z,10.15
2022-09-14T19:22:24.846Z,9.82
2022-09-14T19:24:51.395Z,9.48
2022-09-14T19:27:17.837Z,8.90
2022-09-14T19:29:44.217Z,9.60
2022-09-14T19:32:10.586Z,8.00
2022-09-14T19:34:38.413Z,8.65
2022-09-14T19:37:05.201Z,7.63
2022-09-14T19:39:31.721Z,8.73
2022-09-14T19:41:58.241Z,9.30
2022-09-14T19:44:24.629Z,9.55
2022-09-14T19:46:51.235Z,8.70
2022-09-14T19:49:19.489Z,9.20
2022-09-14T19:51:46.254Z,13.48
2022-09-14T19:54:12.696Z,13.18
2022-09-14T19:56:39.097Z,12.90
2022-09-14T19:59:07.184Z,13.52
2022-09-14T20:01:35.585Z,12.80
2022-09-14T20:04:02.523Z,12.75
2022-09-14T20:06:31.561Z,12.65
2022-09-14T20:08:59.698Z,13.40
2022-09-14T20:11:26.941Z,14.68
2022-09-14T20:13:54.556Z,13.02
2022-09-14T20:16:25.655Z,14.15
2022-09-14T20:18:52.380Z,12.73
2022-09-14T20:21:23.166Z,14.65
2022-09-14T20:24:16.311Z,13.13
2022-09-14T20:26:43.396Z,13.52
2022-09-14T20:29:09.717Z,14.13
2022-09-14T20:31:36.106Z,15.75
2022-09-14T20:34:02.465Z,16.88
2022-09-14T20:36:28.778Z,12.88
2022-09-14T20:38:56.244Z,12.57
2022-09-14T20:41:23.598Z,18.55
2022-09-14T20:43:50.362Z,15.38
2022-09-14T20:46:18.388Z,14.70
2022-09-14T20:48:44.783Z,14.48
2022-09-14T20:51:11.303Z,14.52
2022-09-14T20:53:39.201Z,15.77
2022-09-14T20:56:06.799Z,15.77
2022-09-14T20:58:33.434Z,16.00
2022-09-14T21:01:04.173Z,16.65
2022-09-14T21:03:31.236Z,14.45
2022-09-14T21:06:01.457Z,14.73
2022-09-14T21:08:28.693Z,14.30
2022-09-14T21:10:55.025Z,16.27
2022-09-14T21:13:21.598Z,17.60
2022-09-14T21:15:48.723Z,19.40
2022-09-14T21:18:19.971Z,18.60
2022-09-14T21:20:47.135Z,16.15
2022-09-14T21:23:13.645Z,23.38
2022-09-14T21:25:40.016Z,19.20
2022-09-14T21:28:07.427Z,20.55
2022-09-14T21:30:33.749Z,19.77
2022-09-14T21:33:00.249Z,19.90
2022-09-14T21:35:30.298Z,19.63
2022-09-14T21:37:59.414Z,18.48
2022-09-14T21:40:25.801Z,18.58
2022-09-14T21:42:53.879Z,14.98
2022-09-14T21:45:20.242Z,16.48
2022-09-14T21:47:46.677Z,14.13
2022-09-14T21:50:13.008Z,12.73
2022-09-14T21:52:43.943Z,12.13
2022-09-14T21:55:10.728Z,11.85
2022-09-14T21:57:37.114Z,13.60
2022-09-14T22:00:05.595Z,13.13
2022-09-14T22:02:34.382Z,14.45
2022-09-14T22:05:00.920Z,12.48
2022-09-14T22:07:28.980Z,14.77
2022-09-14T22:09:55.330Z,13.25
2022-09-14T22:12:21.773Z,13.60
2022-09-14T22:14:48.146Z,13.52
2022-09-14T22:17:14.686Z,13.15
2022-09-14T22:19:41.761Z,11.60
2022-09-14T22:22:08.164Z,12.38
2022-09-14T22:24:38.146Z,12.65
2022-09-14T22:27:08.979Z,12.70
2022-09-14T22:29:35.354Z,11.27
2022-09-14T22:32:01.853Z,14.57
2022-09-14T22:34:28.767Z,14.20
2022-09-14T22:36:55.089Z,15.23
2022-09-14T22:39:21.531Z,15.23
2022-09-14T22:41:47.904Z,13.48
2022-09-14T22:44:14.314Z,12.55
2022-09-14T22:46:42.024Z,12.05
2022-09-14T22:49:08.870Z,12.75
2022-09-14T22:51:35.290Z,13.27
2022-09-14T22:54:02.130Z,13.82
2022-09-14T22:56:32.937Z,12.98
2022-09-14T22:59:00.485Z,13.75
2022-09-14T23:01:28.321Z,14.43
2022-09-14T23:03:57.054Z,13.25
2022-09-14T23:06:27.343Z,12.32
2022-09-14T23:08:53.836Z,11.82
2022-09-14T23:11:20.253Z,13.05
2022-09-14T23:13:47.077Z,14.00
2022-09-14T23:16:17.713Z,14.10
2022-09-14T23:18:44.751Z,16.02
2022-09-14T23:21:11.550Z,14.40
2022-09-14T23:23:40.989Z,13.23
2022-09-14T23:26:08.608Z,12.40
2022-09-14T23:28:35.445Z,14.60
2022-09-14T23:31:02.248Z,13.15
2022-09-14T23:33:29.152Z,13.02
2022-09-14T23:35:55.673Z,14.70
2022-09-14T23:38:22.427Z,12.68
2022-09-14T23:40:49.848Z,13.10
2022-09-14T23:43:17.108Z,12.50
2022-09-14T23:45:44.454Z,12.40
2022-09-14T23:48:11.101Z,12.93
2022-09-14T23:50:38.432Z,14.25
2022-09-14T23:53:05.781Z,10.50
2022-09-14T23:55:32.610Z,10.20
2022-09-14T23:57:59.285Z,10.63
